Buoy 41607

sailwx.info

Track history (hours):
 
Tides and Currents Weather Stations Pressure Air Temp Water Temp Dewpoint Dewpoint Depression Visibility Wind Speed Wind Dir Waves Ship Positions

Drifting buoy 41607

Last reported at 2014-Sep-22 18:00 UTC. Time now 2014-Sep-22 20:16 UTC.
Position N 25°20' W 052°03'.

Water temperature 27.9 ° C

Date/timePositionNaut miles runAvg speedWind from/ knotsBaromVisibWave heightAir tempDewpointWater temp
2014-Sep-22 18:00N 25°20' W 052°03'0 0.0 27.9
2014-Sep-22 17:00N 25°20' W 052°03'0 0.0 27.9
2014-Sep-22 16:00N 25°20' W 052°03'2 2.4 27.8
2014-Sep-22 15:00N 25°22' W 052°02'0 0.0 27.7
2014-Sep-22 14:00N 25°22' W 052°02'0 0.0 27.7
2014-Sep-22 13:00N 25°22' W 052°02'3 2.7 27.7
2014-Sep-22 12:00N 25°24' W 052°01'1 0.2 27.7
2014-Sep-22 07:00N 25°25' W 052°01'0 0.0 27.7
2014-Sep-22 04:00N 25°25' W 052°01'1 0.5 27.7
2014-Sep-22 01:00N 25°24' W 052°02'1 0.6 27.8
2014-Sep-21 23:00N 25°23' W 052°01'0 0.0 27.8
2014-Sep-21 22:00N 25°23' W 052°01'5 4.7 27.9
2014-Sep-21 21:00N 25°20' W 051°57'0 0.0 27.9
2014-Sep-21 19:00N 25°20' W 051°57'1 0.7 27.9
2014-Sep-21 17:00N 25°19' W 051°56'0 0.0 27.9
2014-Sep-21 15:00N 25°19' W 051°56'4 2.2 27.8
2014-Sep-21 13:00N 25°21' W 051°52'0 0.0 27.7
2014-Sep-21 12:00N 25°21' W 051°52'0 0.0 27.7
2014-Sep-21 10:00N 25°21' W 051°52'2 1.8 27.7
2014-Sep-21 09:00N 25°22' W 051°50'0 0.0 27.7
2014-Sep-21 06:00N 25°22' W 051°50'0 0.1 27.7
2014-Sep-21 05:00N 25°22' W 051°50'2 0.4 27.7
2014-Sep-21 01:00N 25°23' W 051°51'1 0.4 27.8
2014-Sep-20 22:00N 25°22' W 051°51'3 1.4 27.9
2014-Sep-20 20:00N 25°19' W 051°50'0 0.0 27.9
2014-Sep-20 18:00N 25°19' W 051°50'4 3.9 28.0
2014-Sep-20 17:00N 25°17' W 051°47'0 0.0 28.0
2014-Sep-20 15:00N 25°17' W 051°47'2 0.7 27.9
2014-Sep-20 12:00N 25°16' W 051°45'0 0.0 27.8
2014-Sep-20 11:00N 25°16' W 051°45'0 0.0 27.8
2014-Sep-20 10:00N 25°16' W 051°45'4 3.7 27.8
2014-Sep-20 09:00N 25°17' W 051°41'1 0.3 27.8
2014-Sep-20 07:00N 25°17' W 051°40'0 0.0 27.8
2014-Sep-20 06:00N 25°17' W 051°40'3 0.7 27.8
2014-Sep-20 01:00N 25°20' W 051°39'0 0.0 27.9
2014-Sep-20 00:00N 25°20' W 051°39'1 1.4 27.9
2014-Sep-19 23:00N 25°21' W 051°41'0 0.0 28.0
2014-Sep-19 22:00N 25°21' W 051°41'2 0.6 28.0
2014-Sep-19 19:00N 25°19' W 051°41'0 0.0 28.1
2014-Sep-19 18:00N 25°19' W 051°41'0 0.4 28.0
2014-Sep-19 17:00N 25°19' W 051°41'7 1.3 28.0
2014-Sep-19 12:00N 25°14' W 051°36'0 0.0 27.7
2014-Sep-19 11:00N 25°14' W 051°36'0 0.0 27.7
2014-Sep-19 09:00N 25°14' W 051°36'2 1.9 27.7
2014-Sep-19 08:00N 25°13' W 051°35'0 0.0 27.7
2014-Sep-19 07:00N 25°13' W 051°35'7 6.8 27.7
2014-Sep-19 06:00N 25°15' W 051°27'0 0.0 27.8
2014-Sep-19 05:00N 25°15' W 051°27'0 0.0 27.8
2014-Sep-19 04:00N 25°15' W 051°27'0 0.0 27.8
2014-Sep-19 03:00N 25°15' W 051°27'0 0.0 27.8
2014-Sep-19 02:00N 25°15' W 051°27'3 0.6 27.8
2014-Sep-18 21:00N 25°17' W 051°28'0 0.0 28.0
2014-Sep-18 20:00N 25°17' W 051°28'1 0.5 28.0
2014-Sep-18 18:00N 25°18' W 051°29'1 0.4 28.2
2014-Sep-18 16:00N 25°18' W 051°30'1 0.6 27.9
2014-Sep-18 15:00N 25°17' W 051°30'1 1.1 27.9
2014-Sep-18 14:00N 25°16' W 051°31'3 0.7 27.8
2014-Sep-18 09:00N 25°13' W 051°30'1 0.8 27.8
2014-Sep-18 08:00N 25°12' W 051°30'2 0.9 27.8
2014-Sep-18 06:00N 25°11' W 051°29'8 1.4 27.9
2014-Sep-18 00:00N 25°09' W 051°20'1 1.1 27.8
2014-Sep-17 23:00N 25°10' W 051°19'0 0.1 27.9
2014-Sep-17 22:00N 25°10' W 051°19'2 2.3 27.9
2014-Sep-17 21:00N 25°11' W 051°17'2 1.9 27.9
2014-Sep-17 20:00N 25°13' W 051°16'2 0.5 28.0
2014-Sep-17 16:00N 25°15' W 051°17'2 1.2 27.9
2014-Sep-17 14:00N 25°16' W 051°19'1 0.5 27.7
2014-Sep-17 12:00N 25°16' W 051°20'4 2.2 27.6
2014-Sep-17 10:00N 25°12' W 051°22'0 0.0 27.6
2014-Sep-17 08:00N 25°12' W 051°22'1 0.8 27.6
2014-Sep-17 07:00N 25°12' W 051°22'0 0.0 27.6
2014-Sep-17 06:00N 25°12' W 051°22'2 1.9 27.6
2014-Sep-17 05:00N 25°10' W 051°22'5 1.8 27.7
2014-Sep-17 02:00N 25°06' W 051°18'0 0.0 27.7
2014-Sep-17 01:00N 25°06' W 051°18'4 2.2 27.7
2014-Sep-16 23:00N 25°04' W 051°13'1 0.6 27.8
2014-Sep-16 21:00N 25°04' W 051°12'3 0.9 27.8
2014-Sep-16 18:00N 25°05' W 051°09'2 1.7 27.8
2014-Sep-16 17:00N 25°07' W 051°08'0 0.1 27.8
2014-Sep-16 16:00N 25°07' W 051°08'0 0.0 27.7
2014-Sep-16 15:00N 25°07' W 051°08'5 1.6 27.6
2014-Sep-16 12:00N 25°11' W 051°09'2 0.5 27.4
2014-Sep-16 07:00N 25°11' W 051°12'11 1.8 27.4
2014-Sep-16 01:00N 24°60' W 051°10'0 0.0 27.5
2014-Sep-16 00:00N 24°60' W 051°10'6 0.9 27.5
2014-Sep-15 18:00N 24°58' W 051°05'7 1.7 27.6
2014-Sep-15 14:00N 24°60' W 050°58'4 4.5 27.4
2014-Sep-15 13:00N 25°04' W 050°56'0 0.0 27.4
2014-Sep-15 12:00N 25°04' W 050°56'6 2.1 27.4
2014-Sep-15 09:00N 25°08' W 051°02'0 0.0 27.3
2014-Sep-15 07:00N 25°08' W 051°02'7 1.0 27.3
2014-Sep-15 00:00N 25°04' W 051°08'10 3.2 27.5
2014-Sep-14 21:00N 24°54' W 051°07'0 0.0 27.7
2014-Sep-14 20:00N 24°54' W 051°07'9 9.0 27.7
2014-Sep-14 19:00N 24°51' W 050°57'0 0.0 27.7
2014-Sep-14 18:00N 24°51' W 050°57'0 0.0 27.8
2014-Sep-14 15:00N 24°51' W 050°57'1 0.5 28.3
2014-Sep-14 13:00N 24°52' W 050°57'0 0.0 28.6
2014-Sep-14 12:00N 24°52' W 050°57'0 0.0 28.7
2014-Sep-14 11:00N 24°52' W 050°57'0 0.4 28.7
2014-Sep-14 10:00N 24°51' W 050°56'0 0.0 28.7
2014-Sep-14 09:00N 24°51' W 050°56'2 2.0 28.7
2014-Sep-14 08:00N 24°50' W 050°54'3 0.9 28.8
2014-Sep-14 05:00N 24°49' W 050°52'0 0.0 28.8
2014-Sep-14 04:00N 24°49' W 050°52'0 0.0 28.9
2014-Sep-14 03:00N 24°49' W 050°52'0 0.0 28.9
2014-Sep-14 02:00N 24°49' W 050°52'0 0.0 28.9
2014-Sep-14 01:00N 24°49' W 050°52'2 0.5 28.9
2014-Sep-13 21:00N 24°48' W 050°54'4 4.3 29.0
2014-Sep-13 20:00N 24°45' W 050°50'0 0.0 29.0
2014-Sep-13 18:00N 24°45' W 050°50'1 1.5 29.0
2014-Sep-13 17:00N 24°46' W 050°49'0 0.0 29.0
2014-Sep-13 14:00N 24°46' W 050°49'1 0.4 29.0
2014-Sep-13 12:00N 24°47' W 050°48'0 0.0 29.0
2014-Sep-13 11:00N 24°47' W 050°48'0 0.0 29.0
2014-Sep-13 09:00N 24°47' W 050°48'0 0.0 29.0
2014-Sep-13 08:00N 24°47' W 050°48'1 1.2 29.0
2014-Sep-13 07:00N 24°46' W 050°48'0 0.0 29.0
2014-Sep-13 01:00N 24°46' W 050°48'0 0.2 29.1
2014-Sep-12 23:00N 24°45' W 050°48'0 0.0 29.1
2014-Sep-12 22:00N 24°45' W 050°48'2 0.5 29.1
2014-Sep-12 18:00N 24°44' W 050°46'   29.2
Track history (hours):
 
Tides and Currents Weather Stations Pressure Air Temp Water Temp Dewpoint Dewpoint Depression Visibility Wind Speed Wind Dir Waves Ship Positions

Drifting buoy 41607

Last reported at 2014-Sep-22 18:00 UTC. Time now 2014-Sep-22 20:16 UTC.
Position N 25°20' W 052°03'.

Water temperature 27.9 ° C

Date/timePositionNaut miles runAvg speedWind from/ knotsBaromVisibWave heightAir tempDewpointWater temp
2014-Sep-22 18:00N 25°20' W 052°03'0 0.0 27.9
2014-Sep-22 17:00N 25°20' W 052°03'0 0.0 27.9
2014-Sep-22 16:00N 25°20' W 052°03'2 2.4 27.8
2014-Sep-22 15:00N 25°22' W 052°02'0 0.0 27.7
2014-Sep-22 14:00N 25°22' W 052°02'0 0.0 27.7
2014-Sep-22 13:00N 25°22' W 052°02'3 2.7 27.7
2014-Sep-22 12:00N 25°24' W 052°01'1 0.2 27.7
2014-Sep-22 07:00N 25°25' W 052°01'0 0.0 27.7
2014-Sep-22 04:00N 25°25' W 052°01'1 0.5 27.7
2014-Sep-22 01:00N 25°24' W 052°02'1 0.6 27.8
2014-Sep-21 23:00N 25°23' W 052°01'0 0.0 27.8
2014-Sep-21 22:00N 25°23' W 052°01'5 4.7 27.9
2014-Sep-21 21:00N 25°20' W 051°57'0 0.0 27.9
2014-Sep-21 19:00N 25°20' W 051°57'1 0.7 27.9
2014-Sep-21 17:00N 25°19' W 051°56'0 0.0 27.9
2014-Sep-21 15:00N 25°19' W 051°56'4 2.2 27.8
2014-Sep-21 13:00N 25°21' W 051°52'0 0.0 27.7
2014-Sep-21 12:00N 25°21' W 051°52'0 0.0 27.7
2014-Sep-21 10:00N 25°21' W 051°52'2 1.8 27.7
2014-Sep-21 09:00N 25°22' W 051°50'0 0.0 27.7
2014-Sep-21 06:00N 25°22' W 051°50'0 0.1 27.7
2014-Sep-21 05:00N 25°22' W 051°50'2 0.4 27.7
2014-Sep-21 01:00N 25°23' W 051°51'1 0.4 27.8
2014-Sep-20 22:00N 25°22' W 051°51'3 1.4 27.9
2014-Sep-20 20:00N 25°19' W 051°50'0 0.0 27.9
2014-Sep-20 18:00N 25°19' W 051°50'4 3.9 28.0
2014-Sep-20 17:00N 25°17' W 051°47'0 0.0 28.0
2014-Sep-20 15:00N 25°17' W 051°47'2 0.7 27.9
2014-Sep-20 12:00N 25°16' W 051°45'0 0.0 27.8
2014-Sep-20 11:00N 25°16' W 051°45'0 0.0 27.8
2014-Sep-20 10:00N 25°16' W 051°45'4 3.7 27.8
2014-Sep-20 09:00N 25°17' W 051°41'1 0.3 27.8
2014-Sep-20 07:00N 25°17' W 051°40'0 0.0 27.8
2014-Sep-20 06:00N 25°17' W 051°40'3 0.7 27.8
2014-Sep-20 01:00N 25°20' W 051°39'0 0.0 27.9
2014-Sep-20 00:00N 25°20' W 051°39'1 1.4 27.9
2014-Sep-19 23:00N 25°21' W 051°41'0 0.0 28.0
2014-Sep-19 22:00N 25°21' W 051°41'2 0.6 28.0
2014-Sep-19 19:00N 25°19' W 051°41'0 0.0 28.1
2014-Sep-19 18:00N 25°19' W 051°41'0 0.4 28.0
2014-Sep-19 17:00N 25°19' W 051°41'7 1.3 28.0
2014-Sep-19 12:00N 25°14' W 051°36'0 0.0 27.7
2014-Sep-19 11:00N 25°14' W 051°36'0 0.0 27.7
2014-Sep-19 09:00N 25°14' W 051°36'2 1.9 27.7
2014-Sep-19 08:00N 25°13' W 051°35'0 0.0 27.7
2014-Sep-19 07:00N 25°13' W 051°35'7 6.8 27.7
2014-Sep-19 06:00N 25°15' W 051°27'0 0.0 27.8
2014-Sep-19 05:00N 25°15' W 051°27'0 0.0 27.8
2014-Sep-19 04:00N 25°15' W 051°27'0 0.0 27.8
2014-Sep-19 03:00N 25°15' W 051°27'0 0.0 27.8
2014-Sep-19 02:00N 25°15' W 051°27'3 0.6 27.8
2014-Sep-18 21:00N 25°17' W 051°28'0 0.0 28.0
2014-Sep-18 20:00N 25°17' W 051°28'1 0.5 28.0
2014-Sep-18 18:00N 25°18' W 051°29'1 0.4 28.2
2014-Sep-18 16:00N 25°18' W 051°30'1 0.6 27.9
2014-Sep-18 15:00N 25°17' W 051°30'1 1.1 27.9
2014-Sep-18 14:00N 25°16' W 051°31'3 0.7 27.8
2014-Sep-18 09:00N 25°13' W 051°30'1 0.8 27.8
2014-Sep-18 08:00N 25°12' W 051°30'2 0.9 27.8
2014-Sep-18 06:00N 25°11' W 051°29'8 1.4 27.9
2014-Sep-18 00:00N 25°09' W 051°20'1 1.1 27.8
2014-Sep-17 23:00N 25°10' W 051°19'0 0.1 27.9
2014-Sep-17 22:00N 25°10' W 051°19'2 2.3 27.9
2014-Sep-17 21:00N 25°11' W 051°17'2 1.9 27.9
2014-Sep-17 20:00N 25°13' W 051°16'2 0.5 28.0
2014-Sep-17 16:00N 25°15' W 051°17'2 1.2 27.9
2014-Sep-17 14:00N 25°16' W 051°19'1 0.5 27.7
2014-Sep-17 12:00N 25°16' W 051°20'4 2.2 27.6
2014-Sep-17 10:00N 25°12' W 051°22'0 0.0 27.6
2014-Sep-17 08:00N 25°12' W 051°22'1 0.8 27.6
2014-Sep-17 07:00N 25°12' W 051°22'0 0.0 27.6
2014-Sep-17 06:00N 25°12' W 051°22'2 1.9 27.6
2014-Sep-17 05:00N 25°10' W 051°22'5 1.8 27.7
2014-Sep-17 02:00N 25°06' W 051°18'0 0.0 27.7
2014-Sep-17 01:00N 25°06' W 051°18'4 2.2 27.7
2014-Sep-16 23:00N 25°04' W 051°13'1 0.6 27.8
2014-Sep-16 21:00N 25°04' W 051°12'3 0.9 27.8
2014-Sep-16 18:00N 25°05' W 051°09'2 1.7 27.8
2014-Sep-16 17:00N 25°07' W 051°08'0 0.1 27.8
2014-Sep-16 16:00N 25°07' W 051°08'0 0.0 27.7
2014-Sep-16 15:00N 25°07' W 051°08'5 1.6 27.6
2014-Sep-16 12:00N 25°11' W 051°09'2 0.5 27.4
2014-Sep-16 07:00N 25°11' W 051°12'11 1.8 27.4
2014-Sep-16 01:00N 24°60' W 051°10'0 0.0 27.5
2014-Sep-16 00:00N 24°60' W 051°10'6 0.9 27.5
2014-Sep-15 18:00N 24°58' W 051°05'7 1.7 27.6
2014-Sep-15 14:00N 24°60' W 050°58'4 4.5 27.4
2014-Sep-15 13:00N 25°04' W 050°56'0 0.0 27.4
2014-Sep-15 12:00N 25°04' W 050°56'6 2.1 27.4
2014-Sep-15 09:00N 25°08' W 051°02'0 0.0 27.3
2014-Sep-15 07:00N 25°08' W 051°02'7 1.0 27.3
2014-Sep-15 00:00N 25°04' W 051°08'10 3.2 27.5
2014-Sep-14 21:00N 24°54' W 051°07'0 0.0 27.7
2014-Sep-14 20:00N 24°54' W 051°07'9 9.0 27.7
2014-Sep-14 19:00N 24°51' W 050°57'0 0.0 27.7
2014-Sep-14 18:00N 24°51' W 050°57'0 0.0 27.8
2014-Sep-14 15:00N 24°51' W 050°57'1 0.5 28.3
2014-Sep-14 13:00N 24°52' W 050°57'0 0.0 28.6
2014-Sep-14 12:00N 24°52' W 050°57'0 0.0 28.7
2014-Sep-14 11:00N 24°52' W 050°57'0 0.4 28.7
2014-Sep-14 10:00N 24°51' W 050°56'0 0.0 28.7
2014-Sep-14 09:00N 24°51' W 050°56'2 2.0 28.7
2014-Sep-14 08:00N 24°50' W 050°54'3 0.9 28.8
2014-Sep-14 05:00N 24°49' W 050°52'0 0.0 28.8
2014-Sep-14 04:00N 24°49' W 050°52'0 0.0 28.9
2014-Sep-14 03:00N 24°49' W 050°52'0 0.0 28.9
2014-Sep-14 02:00N 24°49' W 050°52'0 0.0 28.9
2014-Sep-14 01:00N 24°49' W 050°52'2 0.5 28.9
2014-Sep-13 21:00N 24°48' W 050°54'4 4.3 29.0
2014-Sep-13 20:00N 24°45' W 050°50'0 0.0 29.0
2014-Sep-13 18:00N 24°45' W 050°50'1 1.5 29.0
2014-Sep-13 17:00N 24°46' W 050°49'0 0.0 29.0
2014-Sep-13 14:00N 24°46' W 050°49'1 0.4 29.0
2014-Sep-13 12:00N 24°47' W 050°48'0 0.0 29.0
2014-Sep-13 11:00N 24°47' W 050°48'0 0.0 29.0
2014-Sep-13 09:00N 24°47' W 050°48'0 0.0 29.0
2014-Sep-13 08:00N 24°47' W 050°48'1 1.2 29.0
2014-Sep-13 07:00N 24°46' W 050°48'0 0.0 29.0
2014-Sep-13 01:00N 24°46' W 050°48'0 0.2 29.1
2014-Sep-12 23:00N 24°45' W 050°48'0 0.0 29.1
2014-Sep-12 22:00N 24°45' W 050°48'2 0.5 29.1
2014-Sep-12 18:00N 24°44' W 050°46'   29.2

Dump ship's entire track history